AIRPORT ID: Y14

DATE: 2024-05-27 ZULU TIME: 21.35 LOCAL TIME: 16.35


METAR KY14 272135Z AUTO 32017G22KT 10SM 22/09 A2987

ALTIMETER: A2987 Q1012

DENSITY ALT: 2600 Ft

WIND DIRECT: 320

WIND SPEED: 17 Gust

WIND CONDITIONS:

VISIBILTY: 10SM 9999M

TEMPERATURE: 71 F 22 C

DEW POINT: 49 F 9 C

HUMID: 46%

LCL: 3,000-5,000 feet

RADIO CHECK: 0

ADVISARIES: 1

GREETINGS: 0

CONVERSATIONS: 4